Terminal Aerodrome Forecast
Issued by NWS Charleston, WV

Current Version | Previous Version | Text Only | Print | Product List | Glossary Off
Versions: 1 2 3 4 5 6 7 8 9 10 11 12 13 14 15 16 17 18 19 20 21 22 23 24 25 26 27 28 29 30 31

168
FTUS41 KRLX 300155 AAA
TAFBKW
TAF AMD
KBKW 300155Z 3002/3024 VRB03KT P6SM SHRA SCT006 BKN060
     FM300300 00000KT 5SM BR BKN006
     FM300500 00000KT 2SM BR BKN004
     FM301200 00000KT 5SM BR BKN008
     FM301300 VRB03KT P6SM BKN012
     FM301600 VRB03KT P6SM BKN035
     FM301800 VRB03KT P6SM VCTS BKN045CB=

USA.gov is the U.S. government's official web portal to all federal, state and local government web resources and services.